sensor_id;sensor_type;location;lat;lon;timestamp;pressure;altitude;pressure_sealevel;temperature;humidity
52777;BME280;38656;54.260;20.822;2023-04-16T00:02:28;101203.56;;;19.27;55.81
52777;BME280;38656;54.260;20.822;2023-04-16T00:04:55;101198.06;;;20.13;54.72
52777;BME280;38656;54.260;20.822;2023-04-16T00:07:21;101199.56;;;19.40;56.12
52777;BME280;38656;54.260;20.822;2023-04-16T00:09:47;101201.44;;;18.79;57.92
52777;BME280;38656;54.260;20.822;2023-04-16T00:12:14;101198.63;;;19.66;56.34
52777;BME280;38656;54.260;20.822;2023-04-16T00:14:40;101196.75;;;18.99;57.44
52777;BME280;38656;54.260;20.822;2023-04-16T00:17:08;101195.25;;;19.55;55.48
52777;BME280;38656;54.260;20.822;2023-04-16T00:19:35;101199.47;;;18.54;59.13
52777;BME280;38656;54.260;20.822;2023-04-16T00:22:01;101203.91;;;19.33;57.88
52777;BME280;38656;54.260;20.822;2023-04-16T00:24:27;101200.03;;;19.94;55.93
52777;BME280;38656;54.260;20.822;2023-04-16T00:26:53;101196.75;;;18.99;58.17
52777;BME280;38656;54.260;20.822;2023-04-16T00:29:19;101198.19;;;19.27;57.99
52777;BME280;38656;54.260;20.822;2023-04-16T00:31:46;101192.06;;;19.60;57.13
52777;BME280;38656;54.260;20.822;2023-04-16T00:34:12;101192.34;;;20.24;54.71
52777;BME280;38656;54.260;20.822;2023-04-16T00:36:38;101196.44;;;19.61;56.66
52777;BME280;38656;54.260;20.822;2023-04-16T00:39:04;101203.66;;;19.09;58.72
52777;BME280;38656;54.260;20.822;2023-04-16T00:41:30;101199.00;;;19.20;57.93
52777;BME280;38656;54.260;20.822;2023-04-16T00:43:57;101202.97;;;18.81;59.46
52777;BME280;38656;54.260;20.822;2023-04-16T00:46:23;101201.59;;;19.38;57.82
52777;BME280;38656;54.260;20.822;2023-04-16T00:48:50;101202.19;;;19.83;56.27
52777;BME280;38656;54.260;20.822;2023-04-16T00:51:18;101213.72;;;19.75;57.05
52777;BME280;38656;54.260;20.822;2023-04-16T00:53:46;101208.59;;;18.70;58.82
52777;BME280;38656;54.260;20.822;2023-04-16T00:56:12;101209.06;;;19.85;56.40
52777;BME280;38656;54.260;20.822;2023-04-16T00:58:39;101210.63;;;19.37;57.75
52777;BME280;38656;54.260;20.822;2023-04-16T01:01:06;101204.16;;;19.13;57.74
52777;BME280;38656;54.260;20.822;2023-04-16T01:03:39;101215.41;;;19.76;56.62
52777;BME280;38656;54.260;20.822;2023-04-16T01:06:06;101218.41;;;19.14;58.02
52777;BME280;38656;54.260;20.822;2023-04-16T01:08:32;101214.50;;;19.42;57.20
52777;BME280;38656;54.260;20.822;2023-04-16T01:10:58;101219.81;;;19.85;55.87
52777;BME280;38656;54.260;20.822;2023-04-16T01:13:25;101216.69;;;19.47;56.50
52777;BME280;38656;54.260;20.822;2023-04-16T01:15:51;101206.97;;;19.03;57.03
52777;BME280;38656;54.260;20.822;2023-04-16T01:18:19;101212.34;;;19.62;56.74
52777;BME280;38656;54.260;20.822;2023-04-16T01:20:46;101206.00;;;19.63;56.21
52777;BME280;38656;54.260;20.822;2023-04-16T01:23:13;101210.28;;;19.40;57.21
52777;BME280;38656;54.260;20.822;2023-04-16T01:25:39;101206.13;;;19.54;57.35
52777;BME280;38656;54.260;20.822;2023-04-16T01:28:06;101206.41;;;20.26;55.42
52777;BME280;38656;54.260;20.822;2023-04-16T01:30:32;101203.34;;;20.62;53.35
52777;BME280;38656;54.260;20.822;2023-04-16T01:33:00;101206.63;;;19.49;55.74
52777;BME280;38656;54.260;20.822;2023-04-16T01:35:26;101202.50;;;19.71;56.02
52777;BME280;38656;54.260;20.822;2023-04-16T01:37:52;101208.25;;;19.25;56.57
52777;BME280;38656;54.260;20.822;2023-04-16T01:40:19;101208.59;;;19.82;56.07
52777;BME280;38656;54.260;20.822;2023-04-16T01:42:45;101208.59;;;19.31;56.97
52777;BME280;38656;54.260;20.822;2023-04-16T01:45:11;101209.53;;;19.72;56.23
52777;BME280;38656;54.260;20.822;2023-04-16T01:47:37;101206.56;;;19.24;56.54
52777;BME280;38656;54.260;20.822;2023-04-16T01:50:04;101206.56;;;19.24;57.02
52777;BME280;38656;54.260;20.822;2023-04-16T01:52:31;101204.72;;;18.02;60.99
52777;BME280;38656;54.260;20.822;2023-04-16T01:54:57;101207.94;;;18.94;57.81
52777;BME280;38656;54.260;20.822;2023-04-16T01:57:23;101206.81;;;19.05;58.05
52777;BME280;38656;54.260;20.822;2023-04-16T01:59:49;101204.91;;;18.71;57.93
52777;BME280;38656;54.260;20.822;2023-04-16T02:02:15;101207.13;;;19.02;57.34
52777;BME280;38656;54.260;20.822;2023-04-16T02:04:44;101210.66;;;18.76;57.56
52777;BME280;38656;54.260;20.822;2023-04-16T02:07:11;101207.84;;;19.12;56.94
52777;BME280;38656;54.260;20.822;2023-04-16T02:09:39;101211.53;;;19.11;57.32
52777;BME280;38656;54.260;20.822;2023-04-16T02:12:06;101212.84;;;19.07;57.37
52777;BME280;38656;54.260;20.822;2023-04-16T02:14:32;101204.31;;;19.62;55.55
52777;BME280;38656;54.260;20.822;2023-04-16T02:16:59;101210.78;;;19.01;57.34
52777;BME280;38656;54.260;20.822;2023-04-16T02:19:26;101213.56;;;18.65;58.49
52777;BME280;38656;54.260;20.822;2023-04-16T02:21:52;101208.66;;;19.55;55.50
52777;BME280;38656;54.260;20.822;2023-04-16T02:24:20;101212.38;;;19.71;55.02
52777;BME280;38656;54.260;20.822;2023-04-16T02:26:46;101219.13;;;19.91;54.80
52777;BME280;38656;54.260;20.822;2023-04-16T02:29:13;101212.44;;;20.04;53.79
52777;BME280;38656;54.260;20.822;2023-04-16T02:31:39;101216.91;;;19.19;56.58
52777;BME280;38656;54.260;20.822;2023-04-16T02:34:06;101212.31;;;19.03;57.09
52777;BME280;38656;54.260;20.822;2023-04-16T02:36:32;101215.03;;;19.62;56.04
52777;BME280;38656;54.260;20.822;2023-04-16T02:38:58;101210.66;;;19.61;55.25
52777;BME280;38656;54.260;20.822;2023-04-16T02:41:25;101218.13;;;20.01;54.80
52777;BME280;38656;54.260;20.822;2023-04-16T02:43:51;101215.66;;;19.40;55.98
52777;BME280;38656;54.260;20.822;2023-04-16T02:46:17;101215.84;;;19.55;55.80
52777;BME280;38656;54.260;20.822;2023-04-16T02:48:43;101209.09;;;20.18;54.13
52777;BME280;38656;54.260;20.822;2023-04-16T02:51:09;101222.84;;;19.90;54.77
52777;BME280;38656;54.260;20.822;2023-04-16T02:53:35;101220.75;;;19.68;55.04
52777;BME280;38656;54.260;20.822;2023-04-16T02:56:02;101223.75;;;19.64;55.32
52777;BME280;38656;54.260;20.822;2023-04-16T02:58:28;101222.03;;;19.47;55.42
52777;BME280;38656;54.260;20.822;2023-04-16T03:00:54;101220.31;;;18.95;57.25
52777;BME280;38656;54.260;20.822;2023-04-16T03:03:21;101220.72;;;19.59;55.95
52777;BME280;38656;54.260;20.822;2023-04-16T03:05:47;101230.50;;;19.77;54.69
52777;BME280;38656;54.260;20.822;2023-04-16T03:08:13;101234.22;;;19.92;54.30
52777;BME280;38656;54.260;20.822;2023-04-16T03:10:40;101238.69;;;19.24;55.58
52777;BME280;38656;54.260;20.822;2023-04-16T03:13:06;101229.59;;;19.52;55.63
52777;BME280;38656;54.260;20.822;2023-04-16T03:15:32;101231.91;;;19.47;55.64
52777;BME280;38656;54.260;20.822;2023-04-16T03:17:59;101229.53;;;19.35;55.93
52777;BME280;38656;54.260;20.822;2023-04-16T03:20:25;101229.59;;;19.09;56.85
52777;BME280;38656;54.260;20.822;2023-04-16T03:22:51;101228.22;;;20.07;54.00
52777;BME280;38656;54.260;20.822;2023-04-16T03:25:17;101234.56;;;19.38;55.04
52777;BME280;38656;54.260;20.822;2023-04-16T03:27:44;101226.88;;;18.12;58.08
52777;BME280;38656;54.260;20.822;2023-04-16T03:30:11;101235.13;;;18.37;57.98
52777;BME280;38656;54.260;20.822;2023-04-16T03:32:37;101239.19;;;19.28;55.81
52777;BME280;38656;54.260;20.822;2023-04-16T03:35:04;101237.72;;;17.93;59.50
52777;BME280;38656;54.260;20.822;2023-04-16T03:37:31;101244.06;;;18.46;57.68
52777;BME280;38656;54.260;20.822;2023-04-16T03:39:57;101250.09;;;17.94;59.15
52777;BME280;38656;54.260;20.822;2023-04-16T03:42:24;101243.72;;;19.27;55.70
52777;BME280;38656;54.260;20.822;2023-04-16T03:44:50;101247.84;;;19.14;55.03
52777;BME280;38656;54.260;20.822;2023-04-16T03:47:19;101247.00;;;19.13;55.28
52777;BME280;38656;54.260;20.822;2023-04-16T03:49:45;101254.13;;;19.31;55.28
52777;BME280;38656;54.260;20.822;2023-04-16T03:52:11;101253.03;;;19.50;54.55
52777;BME280;38656;54.260;20.822;2023-04-16T03:54:37;101251.56;;;18.86;55.45
52777;BME280;38656;54.260;20.822;2023-04-16T03:57:04;101251.78;;;19.36;54.70
52777;BME280;38656;54.260;20.822;2023-04-16T03:59:30;101258.38;;;20.09;52.54
52777;BME280;38656;54.260;20.822;2023-04-16T04:01:56;101257.38;;;19.16;55.09
52777;BME280;38656;54.260;20.822;2023-04-16T04:04:22;101258.94;;;18.48;56.54
52777;BME280;38656;54.260;20.822;2023-04-16T04:06:49;101258.84;;;17.86;58.81
52777;BME280;38656;54.260;20.822;2023-04-16T04:09:15;101267.41;;;17.90;59.56
52777;BME280;38656;54.260;20.822;2023-04-16T04:11:42;101273.41;;;18.64;57.47
52777;BME280;38656;54.260;20.822;2023-04-16T04:14:08;101268.81;;;18.12;59.24
52777;BME280;38656;54.260;20.822;2023-04-16T04:16:34;101272.25;;;18.40;58.35
52777;BME280;38656;54.260;20.822;2023-04-16T04:19:00;101266.47;;;18.53;57.94
52777;BME280;38656;54.260;20.822;2023-04-16T04:21:27;101264.59;;;19.16;56.24
52777;BME280;38656;54.260;20.822;2023-04-16T04:23:54;101273.13;;;18.67;57.27
52777;BME280;38656;54.260;20.822;2023-04-16T04:26:20;101276.16;;;18.46;57.84
52777;BME280;38656;54.260;20.822;2023-04-16T04:28:46;101270.31;;;18.95;56.96
52777;BME280;38656;54.260;20.822;2023-04-16T04:31:13;101276.31;;;18.88;56.30
52777;BME280;38656;54.260;20.822;2023-04-16T04:33:39;101282.47;;;18.63;58.01
52777;BME280;38656;54.260;20.822;2023-04-16T04:36:06;101275.72;;;19.03;56.67
52777;BME280;38656;54.260;20.822;2023-04-16T04:38:32;101273.66;;;18.97;56.71
52777;BME280;38656;54.260;20.822;2023-04-16T04:40:58;101280.41;;;19.01;56.33
52777;BME280;38656;54.260;20.822;2023-04-16T04:43:24;101279.06;;;18.61;57.47
52777;BME280;38656;54.260;20.822;2023-04-16T04:45:51;101269.13;;;19.23;56.10
52777;BME280;38656;54.260;20.822;2023-04-16T04:48:17;101274.34;;;19.25;56.71
52777;BME280;38656;54.260;20.822;2023-04-16T04:50:44;101269.97;;;19.24;56.26
52777;BME280;38656;54.260;20.822;2023-04-16T04:53:11;101280.50;;;18.11;58.49
52777;BME280;38656;54.260;20.822;2023-04-16T04:55:39;101269.47;;;19.20;56.34
52777;BME280;38656;54.260;20.822;2023-04-16T04:58:07;101271.00;;;19.31;55.81
52777;BME280;38656;54.260;20.822;2023-04-16T05:00:34;101272.50;;;19.25;56.03
52777;BME280;38656;54.260;20.822;2023-04-16T05:03:07;101271.81;;;19.23;56.12
52777;BME280;38656;54.260;20.822;2023-04-16T05:05:34;101279.53;;;18.56;57.39
52777;BME280;38656;54.260;20.822;2023-04-16T05:08:00;101280.13;;;18.42;57.45
52777;BME280;38656;54.260;20.822;2023-04-16T05:10:27;101281.34;;;18.29;57.86
52777;BME280;38656;54.260;20.822;2023-04-16T05:12:53;101280.25;;;19.37;55.01
52777;BME280;38656;54.260;20.822;2023-04-16T05:15:19;101278.53;;;19.62;54.80
52777;BME280;38656;54.260;20.822;2023-04-16T05:17:45;101280.50;;;19.17;55.34
52777;BME280;38656;54.260;20.822;2023-04-16T05:20:12;101285.59;;;17.76;58.10
52777;BME280;38656;54.260;20.822;2023-04-16T05:22:38;101285.13;;;18.63;57.46
52777;BME280;38656;54.260;20.822;2023-04-16T05:25:04;101284.09;;;18.82;55.54
52777;BME280;38656;54.260;20.822;2023-04-16T05:27:30;101287.00;;;18.08;57.91
52777;BME280;38656;54.260;20.822;2023-04-16T05:29:57;101287.38;;;18.49;56.70
52777;BME280;38656;54.260;20.822;2023-04-16T05:32:25;101286.03;;;18.71;56.93
52777;BME280;38656;54.260;20.822;2023-04-16T05:34:51;101291.81;;;17.77;59.50
52777;BME280;38656;54.260;20.822;2023-04-16T05:37:18;101295.44;;;18.57;56.27
52777;BME280;38656;54.260;20.822;2023-04-16T05:39:44;101297.84;;;18.25;57.58
52777;BME280;38656;54.260;20.822;2023-04-16T05:42:10;101288.81;;;19.06;55.54
52777;BME280;38656;54.260;20.822;2023-04-16T05:44:37;101294.00;;;19.42;54.00
52777;BME280;38656;54.260;20.822;2023-04-16T05:47:03;101288.75;;;18.80;54.84
52777;BME280;38656;54.260;20.822;2023-04-16T05:49:29;101294.34;;;17.78;57.16
52777;BME280;38656;54.260;20.822;2023-04-16T05:51:55;101294.03;;;17.81;58.13
52777;BME280;38656;54.260;20.822;2023-04-16T05:54:21;101293.19;;;18.27;57.45
52777;BME280;38656;54.260;20.822;2023-04-16T05:56:47;101290.44;;;18.99;55.06
52777;BME280;38656;54.260;20.822;2023-04-16T05:59:14;101298.81;;;18.60;56.19
52777;BME280;38656;54.260;20.822;2023-04-16T06:01:40;101287.72;;;19.59;53.96
52777;BME280;38656;54.260;20.822;2023-04-16T06:04:06;101298.91;;;18.14;56.93
52777;BME280;38656;54.260;20.822;2023-04-16T06:06:33;101300.91;;;18.48;56.67
52777;BME280;38656;54.260;20.822;2023-04-16T06:08:59;101293.28;;;18.79;55.44
52777;BME280;38656;54.260;20.822;2023-04-16T06:11:25;101304.00;;;19.32;55.14
52777;BME280;38656;54.260;20.822;2023-04-16T06:13:52;101305.22;;;19.11;53.77
52777;BME280;38656;54.260;20.822;2023-04-16T06:16:18;101301.88;;;18.29;56.69
52777;BME280;38656;54.260;20.822;2023-04-16T06:18:44;101300.97;;;19.00;55.85
52777;BME280;38656;54.260;20.822;2023-04-16T06:21:10;101305.25;;;19.19;54.70
52777;BME280;38656;54.260;20.822;2023-04-16T06:23:37;101306.31;;;20.12;53.00
52777;BME280;38656;54.260;20.822;2023-04-16T06:26:04;101305.16;;;19.03;54.33
52777;BME280;38656;54.260;20.822;2023-04-16T06:28:30;101310.63;;;18.75;54.64
52777;BME280;38656;54.260;20.822;2023-04-16T06:30:59;101304.69;;;19.42;54.01
52777;BME280;38656;54.260;20.822;2023-04-16T06:33:25;101318.00;;;19.86;52.34
52777;BME280;38656;54.260;20.822;2023-04-16T06:35:51;101312.47;;;19.53;52.47
52777;BME280;38656;54.260;20.822;2023-04-16T06:38:18;101311.31;;;19.98;51.81
52777;BME280;38656;54.260;20.822;2023-04-16T06:40:44;101315.31;;;19.94;51.99
52777;BME280;38656;54.260;20.822;2023-04-16T06:43:10;101309.13;;;19.51;52.64
52777;BME280;38656;54.260;20.822;2023-04-16T06:45:37;101311.78;;;18.90;55.04
52777;BME280;38656;54.260;20.822;2023-04-16T06:48:03;101318.00;;;19.86;52.27
52777;BME280;38656;54.260;20.822;2023-04-16T06:50:30;101311.31;;;19.21;53.33
52777;BME280;38656;54.260;20.822;2023-04-16T06:52:56;101310.13;;;19.50;52.60
52777;BME280;38656;54.260;20.822;2023-04-16T06:55:22;101315.25;;;19.09;53.52
52777;BME280;38656;54.260;20.822;2023-04-16T06:57:48;101316.47;;;18.52;54.10
52777;BME280;38656;54.260;20.822;2023-04-16T07:00:15;101318.78;;;19.44;51.90
52777;BME280;38656;54.260;20.822;2023-04-16T07:02:41;101319.53;;;19.97;51.51
52777;BME280;38656;54.260;20.822;2023-04-16T07:05:07;101325.75;;;20.06;51.62
52777;BME280;38656;54.260;20.822;2023-04-16T07:07:34;101324.81;;;20.73;50.05
52777;BME280;38656;54.260;20.822;2023-04-16T07:10:00;101319.41;;;20.40;50.58
52777;BME280;38656;54.260;20.822;2023-04-16T07:12:26;101324.22;;;21.27;50.77
52777;BME280;38656;54.260;20.822;2023-04-16T07:14:52;101325.69;;;21.54;49.54
52777;BME280;38656;54.260;20.822;2023-04-16T07:17:18;101319.44;;;19.38;51.26
52777;BME280;38656;54.260;20.822;2023-04-16T07:19:46;101326.78;;;20.46;49.83
52777;BME280;38656;54.260;20.822;2023-04-16T07:22:12;101323.41;;;20.03;51.56
52777;BME280;38656;54.260;20.822;2023-04-16T07:24:38;101324.28;;;20.36;50.32
52777;BME280;38656;54.260;20.822;2023-04-16T07:27:04;101329.94;;;19.66;51.68
52777;BME280;38656;54.260;20.822;2023-04-16T07:29:30;101327.81;;;21.11;48.83
52777;BME280;38656;54.260;20.822;2023-04-16T07:31:57;101334.19;;;20.85;48.85
52777;BME280;38656;54.260;20.822;2023-04-16T07:34:23;101322.09;;;20.31;50.63
52777;BME280;38656;54.260;20.822;2023-04-16T07:36:49;101335.13;;;20.02;50.49
52777;BME280;38656;54.260;20.822;2023-04-16T07:39:16;101333.50;;;20.25;50.96
52777;BME280;38656;54.260;20.822;2023-04-16T07:41:43;101338.44;;;19.95;49.68
52777;BME280;38656;54.260;20.822;2023-04-16T07:44:09;101335.38;;;20.49;49.81
52777;BME280;38656;54.260;20.822;2023-04-16T07:46:35;101329.91;;;19.57;50.10
52777;BME280;38656;54.260;20.822;2023-04-16T07:49:01;101342.91;;;21.20;48.63
52777;BME280;38656;54.260;20.822;2023-04-16T07:51:27;101337.66;;;19.69;50.45
52777;BME280;38656;54.260;20.822;2023-04-16T07:53:54;101332.53;;;20.76;49.08
52777;BME280;38656;54.260;20.822;2023-04-16T07:56:20;101333.84;;;21.04;50.27
52777;BME280;38656;54.260;20.822;2023-04-16T07:58:46;101330.88;;;20.66;48.66
52777;BME280;38656;54.260;20.822;2023-04-16T08:01:13;101334.13;;;20.03;49.10
52777;BME280;38656;54.260;20.822;2023-04-16T08:03:39;101334.94;;;21.51;47.53
52777;BME280;38656;54.260;20.822;2023-04-16T08:06:06;101333.03;;;19.79;50.75
52777;BME280;38656;54.260;20.822;2023-04-16T08:08:32;101331.53;;;20.93;48.96
52777;BME280;38656;54.260;20.822;2023-04-16T08:10:58;101331.09;;;20.06;49.28
52777;BME280;38656;54.260;20.822;2023-04-16T08:13:27;101337.53;;;20.54;48.95
52777;BME280;38656;54.260;20.822;2023-04-16T08:15:53;101339.22;;;20.55;48.61
52777;BME280;38656;54.260;20.822;2023-04-16T08:18:19;101339.56;;;20.85;49.04
52777;BME280;38656;54.260;20.822;2023-04-16T08:20:45;101338.06;;;21.71;46.93
52777;BME280;38656;54.260;20.822;2023-04-16T08:23:11;101336.56;;;20.96;46.95
52777;BME280;38656;54.260;20.822;2023-04-16T08:25:38;101336.19;;;20.33;48.31
52777;BME280;38656;54.260;20.822;2023-04-16T08:28:04;101340.66;;;21.40;46.71
52777;BME280;38656;54.260;20.822;2023-04-16T08:30:30;101347.97;;;20.65;47.19
52777;BME280;38656;54.260;20.822;2023-04-16T08:32:57;101347.66;;;20.68;47.02
52777;BME280;38656;54.260;20.822;2023-04-16T08:35:23;101349.81;;;20.98;46.74
52777;BME280;38656;54.260;20.822;2023-04-16T08:37:49;101349.25;;;21.83;46.25
52777;BME280;38656;54.260;20.822;2023-04-16T08:40:15;101347.69;;;22.75;44.93
52777;BME280;38656;54.260;20.822;2023-04-16T08:42:51;101353.66;;;21.20;47.39
52777;BME280;38656;54.260;20.822;2023-04-16T08:45:18;101354.88;;;21.65;47.17
52777;BME280;38656;54.260;20.822;2023-04-16T08:47:49;101352.19;;;22.28;44.87
52777;BME280;38656;54.260;20.822;2023-04-16T08:50:20;101359.16;;;21.83;44.32
52777;BME280;38656;54.260;20.822;2023-04-16T08:52:52;101354.31;;;21.30;46.79
52777;BME280;38656;54.260;20.822;2023-04-16T08:55:21;101360.28;;;21.57;48.04
52777;BME280;38656;54.260;20.822;2023-04-16T08:57:53;101362.34;;;21.86;46.37
52777;BME280;38656;54.260;20.822;2023-04-16T09:00:23;101360.63;;;21.54;47.08
52777;BME280;38656;54.260;20.822;2023-04-16T09:02:50;101366.63;;;22.04;46.27
52777;BME280;38656;54.260;20.822;2023-04-16T09:05:17;101366.66;;;21.48;47.70
52777;BME280;38656;54.260;20.822;2023-04-16T09:07:46;101366.16;;;22.00;47.05
52777;BME280;38656;54.260;20.822;2023-04-16T09:10:14;101366.16;;;21.61;47.37
52777;BME280;38656;54.260;20.822;2023-04-16T09:12:42;101367.47;;;21.65;47.87
52777;BME280;38656;54.260;20.822;2023-04-16T09:15:12;101377.50;;;20.65;48.68
52777;BME280;38656;54.260;20.822;2023-04-16T09:17:39;101381.78;;;21.40;48.00
52777;BME280;38656;54.260;20.822;2023-04-16T09:20:07;101385.03;;;20.86;47.79
52777;BME280;38656;54.260;20.822;2023-04-16T09:22:37;101385.03;;;21.03;48.01
52777;BME280;38656;54.260;20.822;2023-04-16T09:25:05;101384.06;;;20.79;48.67
52777;BME280;38656;54.260;20.822;2023-04-16T09:27:32;101381.81;;;21.32;47.15
52777;BME280;38656;54.260;20.822;2023-04-16T09:29:59;101383.47;;;21.42;48.22
52777;BME280;38656;54.260;20.822;2023-04-16T09:32:27;101387.97;;;22.05;46.27
52777;BME280;38656;54.260;20.822;2023-04-16T09:34:57;101389.75;;;22.21;46.00
52777;BME280;38656;54.260;20.822;2023-04-16T09:37:27;101391.47;;;22.45;45.10
52777;BME280;38656;54.260;20.822;2023-04-16T09:39:59;101396.91;;;22.06;45.09
52777;BME280;38656;54.260;20.822;2023-04-16T09:42:30;101402.63;;;21.55;45.86
52777;BME280;38656;54.260;20.822;2023-04-16T09:44:57;101395.94;;;22.22;45.22
52777;BME280;38656;54.260;20.822;2023-04-16T09:47:39;101404.34;;;22.27;45.23
52777;BME280;38656;54.260;20.822;2023-04-16T09:50:07;101402.75;;;21.70;46.37
52777;BME280;38656;54.260;20.822;2023-04-16T09:52:36;101403.91;;;21.76;46.13
52777;BME280;38656;54.260;20.822;2023-04-16T09:55:05;101401.50;;;22.20;45.99
52777;BME280;38656;54.260;20.822;2023-04-16T09:57:32;101415.31;;;21.78;46.27
52777;BME280;38656;54.260;20.822;2023-04-16T10:00:06;101405.22;;;21.88;45.60
52777;BME280;38656;54.260;20.822;2023-04-16T10:02:34;101414.56;;;22.00;46.06
52777;BME280;38656;54.260;20.822;2023-04-16T10:05:04;101409.81;;;22.10;45.41
52777;BME280;38656;54.260;20.822;2023-04-16T10:07:34;101428.13;;;22.15;45.55
52777;BME280;38656;54.260;20.822;2023-04-16T10:10:02;101424.00;;;20.91;47.40
52777;BME280;38656;54.260;20.822;2023-04-16T10:12:29;101419.53;;;21.72;47.35
52777;BME280;38656;54.260;20.822;2023-04-16T10:14:57;101422.09;;;21.49;47.04
52777;BME280;38656;54.260;20.822;2023-04-16T10:17:24;101426.88;;;22.34;46.26
52777;BME280;38656;54.260;20.822;2023-04-16T10:19:52;101429.16;;;22.45;46.00
52777;BME280;38656;54.260;20.822;2023-04-16T10:22:19;101423.13;;;21.56;47.21
52777;BME280;38656;54.260;20.822;2023-04-16T10:24:46;101422.25;;;22.12;46.37
52777;BME280;38656;54.260;20.822;2023-04-16T10:27:13;101425.66;;;21.97;46.59
52777;BME280;38656;54.260;20.822;2023-04-16T10:29:42;101424.34;;;21.93;46.68
52777;BME280;38656;54.260;20.822;2023-04-16T10:32:09;101432.44;;;22.24;46.93
52777;BME280;38656;54.260;20.822;2023-04-16T10:34:36;101437.09;;;21.51;47.38
52777;BME280;38656;54.260;20.822;2023-04-16T10:37:02;101427.66;;;22.12;46.43
52777;BME280;38656;54.260;20.822;2023-04-16T10:39:28;101439.25;;;21.56;47.42
52777;BME280;38656;54.260;20.822;2023-04-16T10:42:15;101435.97;;;21.94;47.62
52777;BME280;38656;54.260;20.822;2023-04-16T10:44:42;101436.13;;;21.92;47.10
52777;BME280;38656;54.260;20.822;2023-04-16T10:47:12;101435.78;;;21.95;46.84
52777;BME280;38656;54.260;20.822;2023-04-16T10:49:40;101439.28;;;21.07;48.61
52777;BME280;38656;54.260;20.822;2023-04-16T10:52:14;101442.44;;;21.35;48.65
52777;BME280;38656;54.260;20.822;2023-04-16T10:54:43;101445.28;;;21.58;47.55
52777;BME280;38656;54.260;20.822;2023-04-16T10:57:18;101436.72;;;22.73;47.25
52777;BME280;38656;54.260;20.822;2023-04-16T10:59:46;101433.84;;;22.98;47.07
52777;BME280;38656;54.260;20.822;2023-04-16T11:02:16;101443.88;;;22.58;46.64
52777;BME280;38656;54.260;20.822;2023-04-16T11:04:43;101443.66;;;22.68;46.44
52777;BME280;38656;54.260;20.822;2023-04-16T11:09:59;101444.00;;;22.88;45.58
52777;BME280;38656;54.260;20.822;2023-04-16T11:12:35;101442.72;;;22.21;46.88
52777;BME280;38656;54.260;20.822;2023-04-16T11:15:06;101445.31;;;22.69;46.06
52777;BME280;38656;54.260;20.822;2023-04-16T11:17:46;101448.16;;;23.90;44.93
52777;BME280;38656;54.260;20.822;2023-04-16T11:22:49;101442.28;;;22.01;45.96
52777;BME280;38656;54.260;20.822;2023-04-16T11:27:46;101455.84;;;22.16;47.75
52777;BME280;38656;54.260;20.822;2023-04-16T11:30:13;101462.94;;;21.61;48.55
52777;BME280;38656;54.260;20.822;2023-04-16T11:32:39;101459.41;;;21.35;48.89
52777;BME280;38656;54.260;20.822;2023-04-16T11:35:18;101455.50;;;22.82;46.71
52777;BME280;38656;54.260;20.822;2023-04-16T11:37:45;101458.44;;;22.95;46.88
52777;BME280;38656;54.260;20.822;2023-04-16T11:40:13;101469.81;;;21.55;49.38
52777;BME280;38656;54.260;20.822;2023-04-16T11:42:40;101471.88;;;22.49;47.76
52777;BME280;38656;54.260;20.822;2023-04-16T11:45:11;101469.41;;;22.93;46.39
52777;BME280;38656;54.260;20.822;2023-04-16T11:47:49;101467.81;;;22.53;46.30
52777;BME280;38656;54.260;20.822;2023-04-16T11:50:24;101472.25;;;22.69;46.70
52777;BME280;38656;54.260;20.822;2023-04-16T11:52:52;101466.53;;;22.72;46.26
52777;BME280;38656;54.260;20.822;2023-04-16T11:55:19;101474.78;;;23.40;44.76
52777;BME280;38656;54.260;20.822;2023-04-16T11:57:46;101475.31;;;22.89;45.85
52777;BME280;38656;54.260;20.822;2023-04-16T12:00:13;101481.94;;;22.55;45.42
52777;BME280;38656;54.260;20.822;2023-04-16T12:02:50;101472.84;;;22.79;46.13
52777;BME280;38656;54.260;20.822;2023-04-16T12:08:01;101473.56;;;23.42;44.91
52777;BME280;38656;54.260;20.822;2023-04-16T12:10:29;101475.63;;;22.71;45.86
52777;BME280;38656;54.260;20.822;2023-04-16T12:13:15;101473.81;;;22.63;45.36
52777;BME280;38656;54.260;20.822;2023-04-16T12:15:51;101478.06;;;22.09;47.05
52777;BME280;38656;54.260;20.822;2023-04-16T12:18:19;101480.59;;;22.11;46.17
52777;BME280;38656;54.260;20.822;2023-04-16T12:20:47;101479.75;;;21.54;47.30
52777;BME280;38656;54.260;20.822;2023-04-16T12:23:28;101479.34;;;22.93;45.79
52777;BME280;38656;54.260;20.822;2023-04-16T12:25:57;101483.78;;;22.86;45.69
52777;BME280;38656;54.260;20.822;2023-04-16T12:28:31;101478.72;;;23.29;45.09
52777;BME280;38656;54.260;20.822;2023-04-16T12:30:58;101480.84;;;23.19;45.28
52777;BME280;38656;54.260;20.822;2023-04-16T12:33:25;101480.91;;;23.10;45.19
52777;BME280;38656;54.260;20.822;2023-04-16T12:35:51;101480.03;;;22.24;45.50
52777;BME280;38656;54.260;20.822;2023-04-16T12:38:17;101481.84;;;22.71;45.53
52777;BME280;38656;54.260;20.822;2023-04-16T12:40:44;101487.22;;;21.92;47.41
52777;BME280;38656;54.260;20.822;2023-04-16T12:43:10;101488.53;;;20.64;48.60
52777;BME280;38656;54.260;20.822;2023-04-16T12:45:40;101484.66;;;20.59;50.30
52777;BME280;38656;54.260;20.822;2023-04-16T12:48:07;101485.09;;;21.13;49.47
52777;BME280;38656;54.260;20.822;2023-04-16T12:50:34;101478.13;;;21.93;48.42
52777;BME280;38656;54.260;20.822;2023-04-16T12:53:00;101480.69;;;21.78;48.04